Time;durP1;ratioP1;P1;durP2;ratioP2;P2;SDS_P1;SDS_P2;PMS_P1;PMS_P2;Temp;Humidity;BMP_temperature;BMP_pressure;BME280_temperature;BME280_humidity;BME280_pressure;Samples;Min_cycle;Max_cycle;Signal;HPM_P1;HPM_P2
2022/03/23 00:00:51;;;;;;;48.92;29.17;;;13.70;81.50;;;;;;4951714;28;20418;-66
2022/03/23 00:03:17;;;;;;;61.42;29.52;;;13.70;81.70;;;;;;4952314;28;20114;-66
2022/03/23 00:05:43;;;;;;;55.45;29.15;;;13.70;81.80;;;;;;4954620;28;20178;-66
2022/03/23 00:08:09;;;;;;;50.17;28.67;;;13.60;81.80;;;;;;4952508;28;20501;-65
2022/03/23 00:10:35;;;;;;;60.72;28.48;;;13.60;81.80;;;;;;4951213;28;20035;-66
2022/03/23 00:13:03;;;;;;;53.08;28.52;;;13.50;81.70;;;;;;4952548;28;20128;-66
2022/03/23 00:15:30;;;;;;;51.78;29.10;;;13.50;81.80;;;;;;4949987;28;20046;-66
2022/03/23 00:17:56;;;;;;;61.22;29.83;;;13.50;81.80;;;;;;4945650;28;20061;-66
2022/03/23 00:20:22;;;;;;;59.55;31.38;;;13.50;81.90;;;;;;4954506;28;20039;-66
2022/03/23 00:22:48;;;;;;;51.97;29.30;;;13.50;81.90;;;;;;4952921;28;20036;-66
2022/03/23 00:25:14;;;;;;;61.95;30.80;;;13.50;82.00;;;;;;4951077;28;20034;-66
2022/03/23 00:27:40;;;;;;;62.65;31.42;;;13.50;82.10;;;;;;4952340;28;20501;-65
2022/03/23 00:30:10;;;;;;;52.60;29.40;;;13.40;82.00;;;;;;4951880;28;20023;-65
2022/03/23 00:32:36;;;;;;;56.20;30.65;;;13.40;82.70;;;;;;4979329;28;20108;-66
2022/03/23 00:35:03;;;;;;;56.28;30.65;;;13.40;82.20;;;;;;4990890;28;20042;-66
2022/03/23 00:37:31;;;;;;;54.45;28.92;;;13.30;82.20;;;;;;4951904;28;20599;-66
2022/03/23 00:39:57;;;;;;;54.35;29.15;;;13.30;82.20;;;;;;4952359;28;20051;-66
2022/03/23 00:42:23;;;;;;;55.13;29.65;;;13.30;82.30;;;;;;4945460;28;20038;-66
2022/03/23 00:44:51;;;;;;;55.15;29.20;;;13.30;82.30;;;;;;4945197;28;20093;-66
2022/03/23 00:47:17;;;;;;;60.55;29.88;;;13.20;82.20;;;;;;4964113;28;20035;-66
2022/03/23 00:49:44;;;;;;;52.05;27.52;;;13.20;82.10;;;;;;4946574;28;20079;-66
2022/03/23 00:52:11;;;;;;;51.33;27.95;;;13.20;82.10;;;;;;4950851;28;20121;-66
2022/03/23 00:54:37;;;;;;;51.08;28.23;;;13.20;82.10;;;;;;4950971;28;20031;-66
2022/03/23 00:57:05;;;;;;;48.40;27.83;;;13.10;82.00;;;;;;4952043;28;20106;-65
2022/03/23 00:59:32;;;;;;;51.13;27.60;;;13.10;82.00;;;;;;4951147;28;20055;-66
2022/03/23 01:01:58;;;;;;;48.92;27.52;;;13.10;82.00;;;;;;4941194;28;20551;-66
2022/03/23 01:04:25;;;;;;;51.20;28.23;;;13.00;81.80;;;;;;4945429;28;20039;-66
2022/03/23 01:06:54;;;;;;;54.33;28.52;;;13.10;81.90;;;;;;4941858;28;20035;-66
2022/03/23 01:09:24;;;;;;;59.35;29.27;;;13.00;81.70;;;;;;4975070;28;20027;-65
2022/03/23 01:11:54;;;;;;;57.33;28.90;;;13.00;82.30;;;;;;4994630;28;20042;-66
2022/03/23 01:14:25;;;;;;;55.22;26.60;;;13.00;81.60;;;;;;4950464;28;20074;-66
2022/03/23 01:16:52;;;;;;;47.70;25.80;;;13.00;81.40;;;;;;4987038;28;20480;-66
2022/03/23 01:19:22;;;;;;;50.10;26.80;;;13.00;81.20;;;;;;4962374;28;20044;-65
2022/03/23 01:21:48;;;;;;;49.00;24.67;;;13.00;81.20;;;;;;4932606;28;20059;-65
2022/03/23 01:24:14;;;;;;;48.20;26.95;;;13.00;81.10;;;;;;4948701;28;20478;-66
2022/03/23 01:26:40;;;;;;;54.90;27.15;;;12.90;81.00;;;;;;4976229;28;20038;-66
2022/03/23 01:29:05;;;;;;;51.63;27.15;;;12.90;80.90;;;;;;4950055;28;20423;-65
2022/03/23 01:31:31;;;;;;;53.55;29.33;;;12.90;80.80;;;;;;4950261;28;20050;-66
2022/03/23 01:34:00;;;;;;;51.10;26.38;;;12.90;81.00;;;;;;4990759;28;20114;-66
2022/03/23 01:36:30;;;;;;;52.88;27.23;;;12.90;81.10;;;;;;4942403;28;20043;-67
2022/03/23 01:38:56;;;;;;;57.38;30.00;;;12.90;81.20;;;;;;4949819;28;20057;-66
2022/03/23 01:41:23;;;;;;;54.05;28.08;;;12.80;81.30;;;;;;4949809;28;20034;-66
2022/03/23 01:43:49;;;;;;;49.97;26.67;;;12.80;81.60;;;;;;5016312;28;20039;-66
2022/03/23 01:46:19;;;;;;;50.75;26.92;;;12.80;81.60;;;;;;4938283;28;20062;-65
2022/03/23 01:48:46;;;;;;;55.42;26.70;;;12.80;81.60;;;;;;4949769;28;20065;-66
2022/03/23 01:51:13;;;;;;;50.45;26.38;;;12.70;81.60;;;;;;4949890;28;20042;-66
2022/03/23 01:53:39;;;;;;;50.75;28.60;;;12.70;81.80;;;;;;4950880;28;20054;-66
2022/03/23 01:56:07;;;;;;;51.92;27.60;;;12.60;81.90;;;;;;4950562;28;20538;-66
2022/03/23 01:58:33;;;;;;;56.17;28.25;;;12.60;82.00;;;;;;4942643;28;20035;-64
2022/03/23 02:00:59;;;;;;;60.15;29.40;;;12.60;82.20;;;;;;4932032;28;20066;-66
2022/03/23 02:03:26;;;;;;;58.95;30.65;;;12.50;82.30;;;;;;4938871;28;20598;-65
2022/03/23 02:05:52;;;;;;;62.38;29.15;;;12.40;82.40;;;;;;4935373;28;20491;-66
2022/03/23 02:08:19;;;;;;;56.60;29.98;;;12.40;82.60;;;;;;4939315;28;20106;-66
2022/03/23 02:10:47;;;;;;;57.92;31.30;;;12.40;82.70;;;;;;4968938;28;20031;-65
2022/03/23 02:13:15;;;;;;;53.15;29.27;;;12.40;82.90;;;;;;4949649;28;20075;-66
2022/03/23 02:15:41;;;;;;;54.65;29.45;;;12.40;83.00;;;;;;4948842;28;20089;-65
2022/03/23 02:18:06;;;;;;;55.65;30.70;;;12.40;83.00;;;;;;5000313;28;20113;-65
2022/03/23 02:20:38;;;;;;;63.10;31.42;;;12.30;83.20;;;;;;4952197;28;20471;-66
2022/03/23 02:23:05;;;;;;;59.40;30.38;;;12.40;83.40;;;;;;4949236;28;20027;-66
2022/03/23 02:25:32;;;;;;;66.95;30.50;;;12.30;83.50;;;;;;4950584;28;20043;-65
2022/03/23 02:27:57;;;;;;;50.20;27.15;;;12.30;83.60;;;;;;4938804;28;20042;-65
2022/03/23 02:30:23;;;;;;;53.60;25.98;;;12.30;83.50;;;;;;4948459;28;20117;-65
2022/03/23 02:32:49;;;;;;;48.85;25.83;;;12.20;83.40;;;;;;4978835;28;20029;-65
2022/03/23 02:35:15;;;;;;;56.58;26.05;;;12.30;83.40;;;;;;4978638;28;20135;-65
2022/03/23 02:37:42;;;;;;;48.33;26.85;;;12.20;83.30;;;;;;4942988;28;20044;-65
2022/03/23 02:40:09;;;;;;;52.67;26.42;;;12.10;83.20;;;;;;4932545;28;20051;-65
2022/03/23 02:42:44;;;;;;;49.80;27.08;;;12.10;83.20;;;;;;4942057;28;20559;-65
2022/03/23 02:45:10;;;;;;;52.63;26.33;;;12.10;83.30;;;;;;4946603;28;20035;-65
2022/03/23 02:47:36;;;;;;;49.47;26.23;;;12.10;83.30;;;;;;4949192;28;20169;-65
2022/03/23 02:50:02;;;;;;;44.22;24.35;;;12.00;83.20;;;;;;4950426;28;20092;-66
2022/03/23 02:52:28;;;;;;;55.00;27.35;;;11.90;83.20;;;;;;4950022;28;20035;-65
2022/03/23 03:03:38;;;;;;;55.17;28.83;;;11.80;83.50;;;;;;4950078;28;20047;-66
2022/03/23 03:06:04;;;;;;;53.20;27.65;;;11.80;83.70;;;;;;4949715;28;20118;-65
2022/03/23 03:08:45;;;;;;;57.88;29.42;;;11.80;84.50;;;;;;4950220;28;20119;-66
2022/03/23 03:11:11;;;;;;;52.55;27.42;;;11.70;84.00;;;;;;4937448;28;20031;-66
2022/03/23 03:13:40;;;;;;;52.05;26.45;;;11.70;84.10;;;;;;4949003;28;20089;-66
2022/03/23 03:16:06;;;;;;;46.05;24.35;;;11.70;84.00;;;;;;4953880;28;20037;-65
2022/03/23 03:18:33;;;;;;;55.10;29.17;;;11.70;83.90;;;;;;4975506;28;20055;-66
2022/03/23 03:21:00;;;;;;;58.08;29.40;;;11.70;84.00;;;;;;4945163;28;20039;-65
2022/03/23 03:23:26;;;;;;;55.53;28.25;;;11.70;84.10;;;;;;4946711;28;20047;-65
2022/03/23 03:25:52;;;;;;;64.93;29.27;;;11.70;84.30;;;;;;4930659;28;20048;-66
2022/03/23 03:28:18;;;;;;;39.80;22.50;;;11.70;84.40;;;;;;4933980;28;20019;-65
2022/03/23 03:30:43;;;;;;;51.40;24.52;;;11.70;84.20;;;;;;4950485;28;20497;-65
2022/03/23 03:33:09;;;;;;;50.10;25.75;;;11.70;84.00;;;;;;4996286;28;20498;-65
2022/03/23 03:35:35;;;;;;;48.00;26.75;;;11.60;83.80;;;;;;4968321;28;20043;-66
2022/03/23 03:38:01;;;;;;;52.28;24.48;;;11.60;83.80;;;;;;4943274;28;20058;-66
2022/03/23 03:40:26;;;;;;;47.53;26.08;;;11.60;83.90;;;;;;4946508;28;20114;-65
2022/03/23 03:42:52;;;;;;;43.65;23.73;;;11.50;83.90;;;;;;4944545;28;20372;-65
2022/03/23 03:45:18;;;;;;;49.75;25.30;;;11.50;83.90;;;;;;4953043;28;20496;-65
2022/03/23 03:47:44;;;;;;;50.50;24.88;;;11.50;83.90;;;;;;4941807;28;20036;-66
2022/03/23 03:50:13;;;;;;;44.50;25.00;;;11.50;83.90;;;;;;4934181;28;20093;-65
2022/03/23 03:52:39;;;;;;;50.72;26.88;;;11.40;84.00;;;;;;4943887;28;20031;-66
2022/03/23 03:55:05;;;;;;;46.22;24.60;;;11.40;84.00;;;;;;5023235;28;20025;-66
2022/03/23 03:57:30;;;;;;;50.58;25.13;;;11.40;84.10;;;;;;4983933;28;20557;-66
2022/03/23 03:59:56;;;;;;;47.45;25.40;;;11.40;84.10;;;;;;4959033;28;20055;-66
2022/03/23 04:02:21;;;;;;;46.95;26.17;;;11.40;84.10;;;;;;5006547;28;20082;-66
2022/03/23 04:04:50;;;;;;;42.80;23.25;;;11.30;84.40;;;;;;4955615;28;20544;-65
2022/03/23 04:07:16;;;;;;;46.10;24.88;;;11.30;84.00;;;;;;4953092;28;20031;-66
2022/03/23 04:09:41;;;;;;;44.05;23.50;;;11.30;84.00;;;;;;4938777;28;20039;-66
2022/03/23 04:12:07;;;;;;;42.58;24.30;;;11.20;83.90;;;;;;5000192;28;20077;-66
2022/03/23 04:14:33;;;;;;;43.75;22.77;;;11.20;83.80;;;;;;4936044;28;20114;-66
2022/03/23 04:16:59;;;;;;;40.75;22.23;;;11.20;83.70;;;;;;4956334;28;20573;-65
2022/03/23 04:19:24;;;;;;;47.85;24.48;;;11.20;84.30;;;;;;4939757;28;20054;-66
2022/03/23 04:21:50;;;;;;;42.20;23.63;;;11.10;83.50;;;;;;4952719;28;20364;-65
2022/03/23 04:24:16;;;;;;;41.63;23.17;;;11.10;83.50;;;;;;4950196;28;20046;-65
2022/03/23 04:26:44;;;;;;;54.13;26.38;;;11.20;83.60;;;;;;4996126;28;20066;-66
2022/03/23 04:29:09;;;;;;;61.00;27.85;;;11.20;83.70;;;;;;4973129;28;20113;-66
2022/03/23 04:31:35;;;;;;;53.25;28.63;;;11.10;83.90;;;;;;4995609;28;20108;-66
2022/03/23 04:34:01;;;;;;;53.67;29.13;;;11.10;84.20;;;;;;4976033;28;20040;-66
2022/03/23 04:36:27;;;;;;;55.85;28.42;;;11.20;84.50;;;;;;4976267;28;20269;-66
2022/03/23 04:38:52;;;;;;;57.80;28.48;;;11.10;84.60;;;;;;4959454;28;20136;-66
2022/03/23 04:41:18;;;;;;;51.78;27.83;;;11.10;84.80;;;;;;4981740;28;20100;-66
2022/03/23 04:43:44;;;;;;;56.22;29.58;;;11.10;84.80;;;;;;4981076;28;20377;-66
2022/03/23 04:46:09;;;;;;;59.35;30.92;;;11.10;85.00;;;;;;4969103;28;20159;-66
2022/03/23 04:48:35;;;;;;;58.15;29.73;;;11.00;85.10;;;;;;4956637;28;20096;-66
2022/03/23 04:51:01;;;;;;;64.97;30.38;;;11.10;85.20;;;;;;4983552;28;20032;-67
2022/03/23 04:53:27;;;;;;;59.63;30.48;;;11.10;85.30;;;;;;4962012;28;20026;-67
2022/03/23 04:55:52;;;;;;;49.75;27.88;;;11.00;85.50;;;;;;4992334;28;20120;-66
2022/03/23 04:58:18;;;;;;;53.17;28.75;;;11.00;85.50;;;;;;4950713;28;20043;-65
2022/03/23 05:00:43;;;;;;;53.65;28.58;;;11.00;85.50;;;;;;4955581;28;20108;-65
2022/03/23 05:03:10;;;;;;;52.53;29.02;;;11.00;85.40;;;;;;4946233;28;20070;-65
2022/03/23 05:05:35;;;;;;;56.72;29.50;;;11.00;85.50;;;;;;4934070;28;20232;-65
2022/03/23 05:08:01;;;;;;;61.05;29.55;;;11.00;85.60;;;;;;4933010;28;20106;-65
2022/03/23 05:10:30;;;;;;;55.30;29.23;;;11.00;85.60;;;;;;4957536;28;20025;-65
2022/03/23 05:12:55;;;;;;;57.42;28.83;;;10.90;85.70;;;;;;4995729;28;20043;-65
2022/03/23 05:15:21;;;;;;;48.25;26.23;;;11.00;85.70;;;;;;4987905;28;20111;-65
2022/03/23 05:17:47;;;;;;;58.13;28.35;;;10.90;85.70;;;;;;5000996;28;20213;-65
2022/03/23 05:20:14;;;;;;;62.40;29.65;;;10.90;85.80;;;;;;5005162;28;20696;-66
2022/03/23 05:22:40;;;;;;;56.28;29.08;;;10.90;85.80;;;;;;4965169;28;20028;-65
2022/03/23 05:25:07;;;;;;;59.67;30.10;;;10.80;85.80;;;;;;4990417;28;20036;-65
2022/03/23 05:27:37;;;;;;;57.00;28.58;;;10.90;85.80;;;;;;4974731;28;20120;-65
2022/03/23 05:30:07;;;;;;;54.50;28.08;;;10.80;85.80;;;;;;4986956;28;20465;-65
2022/03/23 05:32:33;;;;;;;55.45;29.85;;;10.90;85.90;;;;;;4975206;28;20031;-65
2022/03/23 05:34:59;;;;;;;60.33;30.23;;;10.80;85.90;;;;;;4951701;28;20513;-65
2022/03/23 05:37:24;;;;;;;60.45;30.92;;;10.80;86.00;;;;;;4932441;28;20067;-65
2022/03/23 05:39:50;;;;;;;60.42;29.45;;;10.80;86.10;;;;;;4963476;28;20054;-67
2022/03/23 05:42:15;;;;;;;58.22;29.48;;;10.80;86.30;;;;;;4991937;28;20122;-65
2022/03/23 05:44:41;;;;;;;55.15;28.52;;;10.70;86.40;;;;;;4949748;28;20040;-65
2022/03/23 05:47:07;;;;;;;64.40;29.42;;;10.70;86.50;;;;;;4964858;28;20020;-64
2022/03/23 05:49:33;;;;;;;57.63;28.98;;;10.70;86.60;;;;;;4953282;28;20039;-64
2022/03/23 05:51:59;;;;;;;58.10;29.48;;;10.70;86.60;;;;;;4969101;28;20038;-65
2022/03/23 05:54:25;;;;;;;64.65;31.23;;;10.70;86.60;;;;;;4947660;28;20031;-65
2022/03/23 05:56:51;;;;;;;60.97;30.33;;;10.70;86.80;;;;;;4961185;28;20036;-65
2022/03/23 05:59:17;;;;;;;68.07;30.73;;;10.70;86.90;;;;;;4980725;28;20097;-65
2022/03/23 06:01:43;;;;;;;51.63;28.88;;;10.70;87.00;;;;;;4976335;28;20036;-65
2022/03/23 06:04:08;;;;;;;59.78;30.10;;;10.70;87.20;;;;;;4986625;28;20087;-65
2022/03/23 06:06:34;;;;;;;64.90;29.30;;;10.70;87.40;;;;;;4969412;28;20475;-66
2022/03/23 06:09:00;;;;;;;55.80;29.98;;;10.70;87.50;;;;;;4954773;28;20034;-69
2022/03/23 06:11:26;;;;;;;54.85;28.92;;;10.60;87.60;;;;;;4953427;28;20031;-67
2022/03/23 06:13:51;;;;;;;57.10;29.15;;;10.60;87.70;;;;;;4950838;28;20046;-64
2022/03/23 06:16:18;;;;;;;51.53;28.30;;;10.60;87.80;;;;;;4976341;28;20038;-65
2022/03/23 06:18:43;;;;;;;62.17;28.90;;;10.60;87.90;;;;;;4984809;28;20143;-65
2022/03/23 06:21:09;;;;;;;57.28;30.58;;;10.60;88.00;;;;;;4982956;28;20017;-65
2022/03/23 06:23:35;;;;;;;53.92;28.45;;;10.60;88.10;;;;;;4968903;28;20031;-65
2022/03/23 06:26:03;;;;;;;51.60;27.00;;;10.50;88.20;;;;;;4984336;28;20029;-65
2022/03/23 06:28:29;;;;;;;50.65;27.83;;;10.50;88.20;;;;;;4969434;28;20037;-68
2022/03/23 06:30:54;;;;;;;53.08;27.85;;;10.50;88.30;;;;;;4990963;28;20039;-68
2022/03/23 06:33:20;;;;;;;54.47;29.65;;;10.60;88.30;;;;;;4967529;28;20475;-65
2022/03/23 06:35:47;;;;;;;53.47;27.27;;;10.50;88.30;;;;;;4989432;28;20436;-66
2022/03/23 06:38:13;;;;;;;49.90;26.42;;;10.50;88.50;;;;;;5000340;28;20025;-66
2022/03/23 06:40:39;;;;;;;52.78;27.10;;;10.40;88.50;;;;;;4972419;28;20023;-66
2022/03/23 06:43:05;;;;;;;52.97;27.30;;;10.50;88.70;;;;;;4988341;28;20429;-65
2022/03/23 06:45:31;;;;;;;58.47;29.08;;;10.40;88.70;;;;;;4979090;28;20044;-67
2022/03/23 06:47:58;;;;;;;53.22;28.23;;;10.40;88.90;;;;;;5009285;28;20029;-66
2022/03/23 06:50:24;;;;;;;53.53;28.00;;;10.40;89.00;;;;;;4963054;28;20228;-66
2022/03/23 06:52:50;;;;;;;56.72;28.95;;;10.50;89.20;;;;;;4984413;28;20028;-71
2022/03/23 06:55:18;;;;;;;56.58;28.50;;;10.50;89.30;;;;;;4956174;28;20038;-71
2022/03/23 06:57:44;;;;;;;52.88;27.98;;;10.50;89.50;;;;;;5025272;28;20488;-65
2022/03/23 07:00:13;;;;;;;57.17;28.38;;;10.50;89.70;;;;;;4950318;28;20047;-66
2022/03/23 07:02:47;;;;;;;61.47;28.83;;;10.50;89.90;;;;;;5009390;28;20036;-66
2022/03/23 07:05:14;;;;;;;51.78;27.48;;;10.50;90.10;;;;;;4949309;28;20039;-66
2022/03/23 07:09:31;;;;;;;55.03;28.30;;;10.50;90.10;;;;;;4949848;28;20032;-66
2022/03/23 07:10:26;;;;;;;50.10;27.35;;;10.50;90.20;;;;;;4949292;28;20031;-66
2022/03/23 07:12:52;;;;;;;54.85;27.45;;;10.50;90.20;;;;;;4940795;28;20062;-66
2022/03/23 07:15:17;;;;;;;53.85;27.27;;;10.50;90.30;;;;;;4944824;28;20039;-66
2022/03/23 07:17:43;;;;;;;55.58;26.55;;;10.60;90.30;;;;;;4987519;28;20039;-66
2022/03/23 07:20:09;;;;;;;51.45;28.73;;;10.60;90.40;;;;;;4949098;28;20054;-66
2022/03/23 07:22:35;;;;;;;54.65;26.80;;;10.60;90.70;;;;;;4949402;28;20047;-66
2022/03/23 07:25:01;;;;;;;47.38;26.35;;;10.60;90.50;;;;;;4959857;28;20078;-66
2022/03/23 07:27:29;;;;;;;50.30;26.05;;;10.70;90.60;;;;;;4949919;28;20487;-66
2022/03/23 07:29:55;;;;;;;56.10;27.58;;;10.70;90.70;;;;;;4949767;28;20023;-65
2022/03/23 07:32:20;;;;;;;57.60;29.63;;;10.70;90.80;;;;;;4949626;28;20027;-65
2022/03/23 07:34:46;;;;;;;31.15;17.45;;;10.80;90.90;;;;;;4958014;28;20466;-68
2022/03/23 07:37:12;;;;;;;31.20;14.65;;;10.70;90.80;;;;;;5006946;28;20038;-65
2022/03/23 07:39:37;;;;;;;31.35;17.33;;;10.80;90.90;;;;;;4983047;28;20035;-65
2022/03/23 07:42:05;;;;;;;36.90;18.98;;;10.80;91.00;;;;;;4977409;28;20034;-65
2022/03/23 07:44:32;;;;;;;40.67;20.65;;;10.90;91.20;;;;;;4976925;28;20496;-66
2022/03/23 07:46:58;;;;;;;46.28;24.58;;;10.90;91.20;;;;;;4982027;28;20037;-65
2022/03/23 07:49:24;;;;;;;43.40;23.35;;;10.90;91.00;;;;;;4965475;28;20039;-66
2022/03/23 07:51:50;;;;;;;45.08;21.65;;;11.00;90.80;;;;;;5012628;28;20103;-66
2022/03/23 07:54:16;;;;;;;46.97;20.40;;;11.10;90.60;;;;;;4937193;28;20475;-65
2022/03/23 07:56:42;;;;;;;47.60;23.45;;;11.10;90.50;;;;;;4947550;28;20031;-65
2022/03/23 07:59:08;;;;;;;45.92;23.85;;;11.20;90.30;;;;;;4938333;28;20063;-65
2022/03/23 08:01:33;;;;;;;42.05;22.95;;;11.20;90.20;;;;;;4980516;28;20120;-65
2022/03/23 08:04:00;;;;;;;51.53;25.77;;;11.30;90.20;;;;;;4963426;28;20386;-65
2022/03/23 08:06:26;;;;;;;42.13;21.70;;;11.40;90.20;;;;;;4949039;28;20066;-65
2022/03/23 08:08:55;;;;;;;45.20;20.30;;;11.40;90.10;;;;;;4948110;28;20046;-65
2022/03/23 08:11:21;;;;;;;38.67;18.45;;;11.40;90.00;;;;;;4949834;28;20066;-65
2022/03/23 08:13:47;;;;;;;38.53;21.00;;;11.50;89.60;;;;;;4949039;28;20394;-65
2022/03/23 08:16:12;;;;;;;43.83;19.08;;;11.60;89.20;;;;;;4963145;28;20029;-65
2022/03/23 08:18:38;;;;;;;41.92;22.95;;;11.60;89.00;;;;;;4959228;28;20046;-66
2022/03/23 08:21:04;;;;;;;41.05;22.45;;;11.70;88.90;;;;;;4941767;28;20039;-65
2022/03/23 08:23:30;;;;;;;50.00;23.08;;;11.70;88.80;;;;;;4939065;28;20035;-66
2022/03/23 08:25:56;;;;;;;42.85;22.33;;;11.80;88.80;;;;;;4943348;28;20028;-65
2022/03/23 08:28:21;;;;;;;53.05;21.05;;;11.90;88.90;;;;;;4933146;28;20035;-65
2022/03/23 08:30:50;;;;;;;71.95;23.25;;;12.00;89.00;;;;;;4943326;28;20168;-66
2022/03/23 08:33:16;;;;;;;42.65;22.92;;;12.00;89.00;;;;;;4952053;28;20074;-66
2022/03/23 08:35:42;;;;;;;41.53;20.83;;;12.10;89.10;;;;;;4941848;28;20051;-65
2022/03/23 08:38:07;;;;;;;38.22;18.55;;;12.10;88.80;;;;;;4950178;28;20019;-65
2022/03/23 08:40:34;;;;;;;44.22;18.08;;;12.20;88.50;;;;;;4952069;28;20118;-66
2022/03/23 08:43:01;;;;;;;41.17;17.42;;;12.30;87.80;;;;;;4952043;28;20023;-65
2022/03/23 08:45:27;;;;;;;37.65;16.75;;;12.30;87.40;;;;;;4952333;28;20128;-66
2022/03/23 08:47:54;;;;;;;35.53;17.10;;;12.40;86.70;;;;;;4952065;28;20035;-65
2022/03/23 08:50:19;;;;;;;41.13;18.23;;;12.40;86.30;;;;;;4940426;28;20367;-66
2022/03/23 08:52:45;;;;;;;34.20;17.67;;;12.50;85.80;;;;;;4938599;28;20047;-66
2022/03/23 08:55:14;;;;;;;32.17;17.35;;;12.50;85.30;;;;;;4951597;28;20031;-65
2022/03/23 08:57:41;;;;;;;28.60;17.50;;;12.70;84.70;;;;;;4944613;28;20038;-66
2022/03/23 09:00:08;;;;;;;46.00;19.08;;;12.70;84.10;;;;;;4932646;28;20138;-66
2022/03/23 09:02:37;;;;;;;27.17;14.95;;;12.80;83.60;;;;;;4953487;28;20051;-66
2022/03/23 09:05:03;;;;;;;32.00;16.27;;;12.80;83.20;;;;;;4932911;29;20036;-65
2022/03/23 09:07:32;;;;;;;30.30;14.23;;;12.90;82.90;;;;;;4948951;28;20081;-65
2022/03/23 09:09:57;;;;;;;28.05;14.85;;;13.00;83.00;;;;;;4952240;29;20042;-66
2022/03/23 09:12:23;;;;;;;31.60;16.30;;;13.10;82.70;;;;;;4951781;28;20023;-66
2022/03/23 09:14:51;;;;;;;32.33;15.43;;;13.10;82.00;;;;;;4941115;28;20382;-65
2022/03/23 09:17:17;;;;;;;26.83;15.40;;;13.20;80.60;;;;;;4982744;28;20447;-66
2022/03/23 09:19:42;;;;;;;30.20;15.57;;;13.20;80.50;;;;;;4951648;28;20206;-66
2022/03/23 09:22:08;;;;;;;30.13;16.45;;;13.30;80.90;;;;;;4950828;28;20031;-65
2022/03/23 09:24:34;;;;;;;25.60;14.65;;;13.40;80.60;;;;;;4950739;28;20074;-65
2022/03/23 09:26:59;;;;;;;25.20;14.52;;;13.40;80.50;;;;;;4946279;28;20062;-66
2022/03/23 09:29:25;;;;;;;29.38;13.55;;;13.50;80.20;;;;;;4944053;28;20031;-65
2022/03/23 09:31:51;;;;;;;29.67;15.25;;;13.50;80.60;;;;;;4938187;28;20046;-66
2022/03/23 09:34:17;;;;;;;27.55;14.07;;;13.50;79.60;;;;;;4951629;28;20046;-65
2022/03/23 09:39:27;;;;;;;26.98;15.00;;;13.60;80.00;;;;;;4948159;28;20035;-65
2022/03/23 09:41:57;;;;;;;23.58;11.07;;;13.70;79.00;;;;;;4942032;28;20046;-66
2022/03/23 09:44:27;;;;;;;26.00;12.88;;;13.80;80.00;;;;;;4951506;28;20031;-65
2022/03/23 09:46:52;;;;;;;26.92;15.13;;;13.80;80.30;;;;;;4939991;28;20089;-68
2022/03/23 09:49:18;;;;;;;25.52;13.23;;;13.90;79.70;;;;;;4931956;28;20411;-65
2022/03/23 09:51:46;;;;;;;22.85;12.18;;;13.90;78.80;;;;;;4935213;28;20054;-65
2022/03/23 09:54:12;;;;;;;27.45;15.95;;;13.90;79.50;;;;;;4949382;28;20031;-65
2022/03/23 09:56:37;;;;;;;26.80;14.70;;;14.00;78.00;;;;;;4996007;28;20034;-65
2022/03/23 09:59:06;;;;;;;27.35;15.23;;;14.10;77.40;;;;;;4980279;28;20105;-65
2022/03/23 10:01:33;;;;;;;30.48;15.90;;;14.10;76.80;;;;;;4986228;28;20072;-65
2022/03/23 10:04:20;;;;;;;25.35;14.25;;;14.20;76.10;;;;;;5016531;28;20033;-65
2022/03/23 10:06:51;;;;;;;23.35;13.93;;;14.30;75.80;;;;;;4983416;28;20057;-67
2022/03/23 10:09:26;;;;;;;23.25;14.07;;;14.40;76.40;;;;;;4993218;28;20461;-66
2022/03/23 10:12:12;;;;;;;29.08;14.18;;;14.40;76.70;;;;;;5015261;28;20044;-65
2022/03/23 10:15:11;;;;;;;25.20;14.07;;;14.40;76.50;;;;;;4942528;28;20031;-66
2022/03/23 10:18:24;;;;;;;22.60;12.65;;;14.50;75.90;;;;;;4977258;28;20040;-66
2022/03/23 10:20:51;;;;;;;28.90;12.70;;;14.60;75.60;;;;;;4998130;28;20049;-65
2022/03/23 10:23:21;;;;;;;33.78;14.95;;;14.70;76.00;;;;;;5009376;28;20080;-65
2022/03/23 10:25:48;;;;;;;29.88;15.63;;;14.70;75.40;;;;;;4987987;28;20037;-65
2022/03/23 10:28:15;;;;;;;21.88;11.75;;;14.70;74.20;;;;;;5005483;28;20021;-65
2022/03/23 10:30:42;;;;;;;26.88;15.07;;;14.80;74.70;;;;;;4983331;28;20040;-66
2022/03/23 10:33:24;;;;;;;31.65;12.80;;;14.90;74.60;;;;;;4932973;28;20349;-66
2022/03/23 10:35:51;;;;;;;27.42;14.68;;;14.90;75.90;;;;;;4949410;28;20041;-66
2022/03/23 10:38:22;;;;;;;26.50;13.85;;;15.00;76.70;;;;;;4950411;28;20487;-66
2022/03/23 10:40:51;;;;;;;14.23;8.15;;;15.00;75.60;;;;;;4949819;28;20402;-66
2022/03/23 10:43:20;;;;;;;27.20;15.70;;;15.10;78.00;;;;;;4950075;28;20547;-66
2022/03/23 10:45:47;;;;;;;34.55;13.32;;;15.20;75.60;;;;;;4938258;28;20471;-66
2022/03/23 10:48:17;;;;;;;25.63;13.40;;;15.30;75.60;;;;;;4938809;28;20382;-66
2022/03/23 10:50:57;;;;;;;21.67;12.95;;;15.20;74.00;;;;;;4935746;28;20093;-66
2022/03/23 10:53:49;;;;;;;22.48;13.48;;;15.30;73.60;;;;;;4950328;28;20096;-66
2022/03/23 10:56:15;;;;;;;22.38;13.13;;;15.30;73.40;;;;;;4948195;28;20043;-66
2022/03/23 10:58:41;;;;;;;21.38;12.70;;;15.40;72.70;;;;;;4949230;28;20131;-65
2022/03/23 11:01:07;;;;;;;20.40;13.52;;;15.50;72.40;;;;;;4950475;28;20114;-66
2022/03/23 11:03:38;;;;;;;25.67;13.15;;;15.50;71.50;;;;;;4950095;28;20459;-66
2022/03/23 11:06:12;;;;;;;23.88;13.43;;;15.60;70.10;;;;;;4950689;28;20121;-66
2022/03/23 11:08:42;;;;;;;27.58;13.27;;;15.60;69.90;;;;;;4931451;28;20032;-66
2022/03/23 11:16:51;;;;;;;29.13;11.55;;;15.80;67.80;;;;;;4944471;28;20039;-66
2022/03/23 11:19:19;;;;;;;26.23;13.38;;;15.90;68.80;;;;;;4947960;28;20418;-66
2022/03/23 11:22:05;;;;;;;23.02;13.95;;;15.90;69.50;;;;;;4933377;28;20036;-66
2022/03/23 11:24:37;;;;;;;23.85;13.98;;;16.00;69.00;;;;;;4933036;28;20051;-66
2022/03/23 11:27:13;;;;;;;31.15;12.95;;;16.00;69.40;;;;;;4950317;28;20039;-66
2022/03/23 11:29:39;;;;;;;24.30;13.20;;;16.10;69.10;;;;;;4937482;28;20075;-66
2022/03/23 11:32:11;;;;;;;21.15;11.48;;;16.10;69.70;;;;;;4945143;28;20047;-66
2022/03/23 11:34:38;;;;;;;23.52;12.38;;;16.20;68.80;;;;;;5001189;28;20046;-68
2022/03/23 11:37:06;;;;;;;24.15;12.95;;;16.30;67.40;;;;;;4964644;28;20036;-66
2022/03/23 11:39:36;;;;;;;22.85;10.60;;;16.30;67.20;;;;;;4944466;28;20037;-66
2022/03/23 11:42:04;;;;;;;23.13;10.52;;;16.40;67.60;;;;;;5002318;28;20068;-66
2022/03/23 11:44:30;;;;;;;23.17;13.40;;;16.40;66.30;;;;;;4990685;28;20046;-66
2022/03/23 11:47:05;;;;;;;26.17;12.98;;;16.50;67.10;;;;;;5027094;28;20025;-66
2022/03/23 11:49:46;;;;;;;22.55;12.98;;;16.50;66.40;;;;;;5009288;28;20114;-69
2022/03/23 11:52:19;;;;;;;25.48;12.38;;;16.70;66.90;;;;;;4985830;28;20391;-69
2022/03/23 11:55:38;;;;;;;22.33;10.03;;;16.70;66.30;;;;;;4935061;28;20050;-66
2022/03/23 11:58:05;;;;;;;27.20;11.15;;;16.70;66.70;;;;;;4934464;29;20070;-66
2022/03/23 12:00:39;;;;;;;20.40;10.93;;;16.80;67.10;;;;;;4950200;28;20055;-66
2022/03/23 12:03:05;;;;;;;21.90;10.80;;;16.80;66.20;;;;;;4940261;29;20035;-66
2022/03/23 12:05:35;;;;;;;24.42;10.93;;;16.90;66.70;;;;;;4942896;28;20510;-66
2022/03/23 12:08:01;;;;;;;19.70;8.95;;;16.90;65.80;;;;;;4950040;28;20463;-66
2022/03/23 12:10:31;;;;;;;17.80;8.82;;;16.90;66.30;;;;;;4932768;29;20034;-66
2022/03/23 12:13:17;;;;;;;31.95;12.27;;;17.00;65.70;;;;;;4946059;28;20049;-66
2022/03/23 12:15:58;;;;;;;26.05;12.35;;;17.10;66.30;;;;;;4944441;28;20415;-66
2022/03/23 12:18:58;;;;;;;29.58;12.98;;;17.10;65.80;;;;;;4951494;28;20387;-66
2022/03/23 12:21:27;;;;;;;25.38;11.38;;;17.20;65.30;;;;;;4949855;28;20438;-66
2022/03/23 12:24:00;;;;;;;28.25;11.10;;;17.20;66.00;;;;;;4933707;28;20075;-66
2022/03/23 12:26:30;;;;;;;;;;;17.30;67.80;;;;;;4934026;28;20044;-66
2022/03/23 12:29:13;;;;;;;35.30;14.48;;;17.30;70.50;;;;;;4938693;28;19964;-66
2022/03/23 12:31:40;;;;;;;21.13;12.65;;;17.30;68.00;;;;;;4951809;28;20039;-66
2022/03/23 12:34:19;;;;;;;28.23;14.55;;;17.30;68.60;;;;;;4944355;28;20043;-66
2022/03/23 12:36:59;;;;;;;31.08;12.55;;;17.40;68.00;;;;;;4949958;28;20063;-66
2022/03/23 12:39:32;;;;;;;26.40;13.55;;;17.40;68.70;;;;;;4952814;28;20043;-66
2022/03/23 12:42:11;;;;;;;23.52;13.32;;;17.50;67.80;;;;;;4940321;28;20069;-66
2022/03/23 12:44:37;;;;;;;24.23;12.13;;;17.50;68.10;;;;;;4950938;28;20040;-66
2022/03/23 12:47:26;;;;;;;25.55;13.45;;;17.50;66.90;;;;;;4933620;28;20089;-66
2022/03/23 12:58:18;;;;;;;28.83;13.82;;;17.60;67.40;;;;;;4941816;28;20043;-66